sensor_id;sensor_type;location;lat;lon;timestamp;P1;durP1;ratioP1;P2;durP2;ratioP2
49784;SDS011;35679;38.732;-121.358;2023-09-19T00:01:46;6.60;;;5.90;;
49784;SDS011;35679;38.732;-121.358;2023-09-19T00:04:36;6.22;;;5.60;;
49784;SDS011;35679;38.732;-121.358;2023-09-19T00:07:28;7.38;;;5.75;;
49784;SDS011;35679;38.732;-121.358;2023-09-19T00:10:17;10.15;;;6.10;;
49784;SDS011;35679;38.732;-121.358;2023-09-19T00:13:08;7.47;;;6.10;;
49784;SDS011;35679;38.732;-121.358;2023-09-19T00:16:11;9.75;;;6.30;;
49784;SDS011;35679;38.732;-121.358;2023-09-19T00:19:01;9.15;;;6.93;;
49784;SDS011;35679;38.732;-121.358;2023-09-19T00:21:51;6.93;;;6.18;;
49784;SDS011;35679;38.732;-121.358;2023-09-19T00:24:41;8.40;;;6.55;;
49784;SDS011;35679;38.732;-121.358;2023-09-19T00:27:31;7.30;;;5.75;;
49784;SDS011;35679;38.732;-121.358;2023-09-19T00:30:22;8.50;;;5.60;;
49784;SDS011;35679;38.732;-121.358;2023-09-19T00:33:13;9.98;;;9.18;;
49784;SDS011;35679;38.732;-121.358;2023-09-19T00:36:04;8.75;;;7.90;;
49784;SDS011;35679;38.732;-121.358;2023-09-19T00:38:54;10.70;;;8.25;;
49784;SDS011;35679;38.732;-121.358;2023-09-19T00:41:43;8.15;;;6.97;;
49784;SDS011;35679;38.732;-121.358;2023-09-19T00:44:33;7.50;;;6.70;;
49784;SDS011;35679;38.732;-121.358;2023-09-19T00:47:22;7.82;;;6.18;;
49784;SDS011;35679;38.732;-121.358;2023-09-19T00:50:13;7.70;;;7.00;;
49784;SDS011;35679;38.732;-121.358;2023-09-19T00:53:08;10.95;;;6.10;;
49784;SDS011;35679;38.732;-121.358;2023-09-19T00:55:59;8.63;;;6.10;;
49784;SDS011;35679;38.732;-121.358;2023-09-19T00:58:48;10.95;;;6.18;;
49784;SDS011;35679;38.732;-121.358;2023-09-19T01:01:38;7.50;;;5.95;;
49784;SDS011;35679;38.732;-121.358;2023-09-19T01:04:29;7.05;;;6.10;;
49784;SDS011;35679;38.732;-121.358;2023-09-19T01:07:19;7.97;;;6.43;;
49784;SDS011;35679;38.732;-121.358;2023-09-19T01:10:17;9.13;;;5.53;;
49784;SDS011;35679;38.732;-121.358;2023-09-19T01:16:21;6.47;;;5.82;;
49784;SDS011;35679;38.732;-121.358;2023-09-19T01:22:51;8.60;;;6.05;;
49784;SDS011;35679;38.732;-121.358;2023-09-19T01:26:11;6.20;;;5.70;;
49784;SDS011;35679;38.732;-121.358;2023-09-19T01:32:24;11.02;;;6.47;;
49784;SDS011;35679;38.732;-121.358;2023-09-19T01:35:15;7.13;;;6.53;;
49784;SDS011;35679;38.732;-121.358;2023-09-19T01:38:06;9.90;;;6.47;;
49784;SDS011;35679;38.732;-121.358;2023-09-19T01:41:04;7.32;;;6.63;;
49784;SDS011;35679;38.732;-121.358;2023-09-19T01:44:00;7.82;;;6.47;;
49784;SDS011;35679;38.732;-121.358;2023-09-19T01:46:52;8.10;;;6.70;;
49784;SDS011;35679;38.732;-121.358;2023-09-19T01:49:55;7.32;;;6.72;;
49784;SDS011;35679;38.732;-121.358;2023-09-19T01:52:54;6.85;;;6.28;;
49784;SDS011;35679;38.732;-121.358;2023-09-19T01:56:05;6.72;;;6.13;;
49784;SDS011;35679;38.732;-121.358;2023-09-19T01:59:16;6.22;;;5.55;;
49784;SDS011;35679;38.732;-121.358;2023-09-19T02:02:12;9.48;;;8.85;;
49784;SDS011;35679;38.732;-121.358;2023-09-19T02:05:03;6.38;;;5.65;;
49784;SDS011;35679;38.732;-121.358;2023-09-19T02:07:53;6.07;;;5.68;;
49784;SDS011;35679;38.732;-121.358;2023-09-19T02:10:44;7.80;;;5.75;;
49784;SDS011;35679;38.732;-121.358;2023-09-19T02:13:37;5.80;;;5.25;;
49784;SDS011;35679;38.732;-121.358;2023-09-19T02:16:27;5.10;;;4.70;;
49784;SDS011;35679;38.732;-121.358;2023-09-19T02:19:17;6.00;;;5.00;;
49784;SDS011;35679;38.732;-121.358;2023-09-19T02:22:07;5.38;;;4.97;;
49784;SDS011;35679;38.732;-121.358;2023-09-19T02:24:58;7.45;;;5.65;;
49784;SDS011;35679;38.732;-121.358;2023-09-19T02:27:49;5.50;;;4.63;;
49784;SDS011;35679;38.732;-121.358;2023-09-19T02:30:43;4.82;;;4.35;;
49784;SDS011;35679;38.732;-121.358;2023-09-19T02:33:32;3.80;;;3.50;;
49784;SDS011;35679;38.732;-121.358;2023-09-19T02:36:22;4.05;;;3.50;;
49784;SDS011;35679;38.732;-121.358;2023-09-19T02:39:11;5.47;;;3.83;;
49784;SDS011;35679;38.732;-121.358;2023-09-19T02:42:01;3.95;;;3.55;;
49784;SDS011;35679;38.732;-121.358;2023-09-19T02:44:52;5.63;;;3.50;;
49784;SDS011;35679;38.732;-121.358;2023-09-19T02:47:41;5.38;;;3.58;;
49784;SDS011;35679;38.732;-121.358;2023-09-19T02:50:31;5.32;;;3.55;;
49784;SDS011;35679;38.732;-121.358;2023-09-19T02:53:22;3.88;;;3.50;;
49784;SDS011;35679;38.732;-121.358;2023-09-19T02:56:12;3.78;;;3.15;;
49784;SDS011;35679;38.732;-121.358;2023-09-19T02:59:03;4.25;;;3.30;;
49784;SDS011;35679;38.732;-121.358;2023-09-19T03:01:52;6.30;;;3.60;;
49784;SDS011;35679;38.732;-121.358;2023-09-19T03:04:43;4.05;;;3.65;;
49784;SDS011;35679;38.732;-121.358;2023-09-19T03:07:34;3.88;;;3.10;;
49784;SDS011;35679;38.732;-121.358;2023-09-19T03:10:26;3.90;;;3.60;;
49784;SDS011;35679;38.732;-121.358;2023-09-19T03:13:17;3.90;;;3.50;;
49784;SDS011;35679;38.732;-121.358;2023-09-19T03:16:06;3.75;;;3.45;;
49784;SDS011;35679;38.732;-121.358;2023-09-19T03:18:56;4.20;;;3.80;;
49784;SDS011;35679;38.732;-121.358;2023-09-19T03:21:52;5.10;;;3.50;;
49784;SDS011;35679;38.732;-121.358;2023-09-19T03:24:41;5.05;;;3.03;;
49784;SDS011;35679;38.732;-121.358;2023-09-19T03:27:32;3.30;;;3.10;;
49784;SDS011;35679;38.732;-121.358;2023-09-19T03:30:22;3.22;;;2.95;;
49784;SDS011;35679;38.732;-121.358;2023-09-19T03:33:12;3.67;;;3.38;;
49784;SDS011;35679;38.732;-121.358;2023-09-19T03:36:02;3.33;;;3.03;;
49784;SDS011;35679;38.732;-121.358;2023-09-19T03:38:55;4.70;;;3.20;;
49784;SDS011;35679;38.732;-121.358;2023-09-19T03:41:46;3.83;;;3.47;;
49784;SDS011;35679;38.732;-121.358;2023-09-19T03:44:35;4.15;;;3.65;;
49784;SDS011;35679;38.732;-121.358;2023-09-19T03:47:25;3.67;;;3.33;;
49784;SDS011;35679;38.732;-121.358;2023-09-19T03:50:16;3.80;;;3.50;;
49784;SDS011;35679;38.732;-121.358;2023-09-19T03:53:06;3.92;;;3.63;;
49784;SDS011;35679;38.732;-121.358;2023-09-19T03:55:58;4.30;;;3.60;;
49784;SDS011;35679;38.732;-121.358;2023-09-19T03:58:51;3.80;;;3.50;;
49784;SDS011;35679;38.732;-121.358;2023-09-19T04:01:40;4.47;;;3.10;;
49784;SDS011;35679;38.732;-121.358;2023-09-19T04:04:30;3.45;;;3.15;;
49784;SDS011;35679;38.732;-121.358;2023-09-19T04:07:19;3.53;;;3.22;;
49784;SDS011;35679;38.732;-121.358;2023-09-19T04:10:11;3.60;;;3.30;;
49784;SDS011;35679;38.732;-121.358;2023-09-19T04:13:02;3.45;;;3.00;;
49784;SDS011;35679;38.732;-121.358;2023-09-19T04:15:52;4.80;;;3.53;;
49784;SDS011;35679;38.732;-121.358;2023-09-19T04:18:41;4.07;;;3.78;;
49784;SDS011;35679;38.732;-121.358;2023-09-19T04:21:31;3.80;;;3.60;;
49784;SDS011;35679;38.732;-121.358;2023-09-19T04:24:20;5.00;;;3.58;;
49784;SDS011;35679;38.732;-121.358;2023-09-19T04:27:10;3.75;;;3.42;;
49784;SDS011;35679;38.732;-121.358;2023-09-19T04:30:00;4.00;;;3.70;;
49784;SDS011;35679;38.732;-121.358;2023-09-19T04:32:52;4.03;;;3.63;;
49784;SDS011;35679;38.732;-121.358;2023-09-19T04:35:42;4.57;;;4.18;;
49784;SDS011;35679;38.732;-121.358;2023-09-19T04:38:31;4.50;;;3.92;;
49784;SDS011;35679;38.732;-121.358;2023-09-19T04:41:21;6.35;;;4.05;;
49784;SDS011;35679;38.732;-121.358;2023-09-19T04:44:10;5.85;;;3.97;;
49784;SDS011;35679;38.732;-121.358;2023-09-19T04:47:01;3.60;;;3.20;;
49784;SDS011;35679;38.732;-121.358;2023-09-19T04:49:50;4.75;;;3.65;;
49784;SDS011;35679;38.732;-121.358;2023-09-19T04:52:40;3.80;;;3.47;;
49784;SDS011;35679;38.732;-121.358;2023-09-19T04:55:31;4.10;;;3.70;;
49784;SDS011;35679;38.732;-121.358;2023-09-19T04:58:21;3.83;;;3.40;;
49784;SDS011;35679;38.732;-121.358;2023-09-19T05:01:12;4.05;;;3.47;;
49784;SDS011;35679;38.732;-121.358;2023-09-19T05:04:03;5.75;;;3.38;;
49784;SDS011;35679;38.732;-121.358;2023-09-19T05:06:53;4.05;;;3.28;;
49784;SDS011;35679;38.732;-121.358;2023-09-19T05:09:43;3.58;;;3.28;;
49784;SDS011;35679;38.732;-121.358;2023-09-19T05:12:33;6.55;;;3.30;;
49784;SDS011;35679;38.732;-121.358;2023-09-19T05:15:26;3.88;;;3.58;;
49784;SDS011;35679;38.732;-121.358;2023-09-19T05:18:15;5.10;;;3.42;;
49784;SDS011;35679;38.732;-121.358;2023-09-19T05:21:05;3.85;;;3.40;;
49784;SDS011;35679;38.732;-121.358;2023-09-19T05:23:54;3.58;;;3.28;;
49784;SDS011;35679;38.732;-121.358;2023-09-19T05:26:44;3.42;;;3.13;;
49784;SDS011;35679;38.732;-121.358;2023-09-19T05:29:34;5.05;;;3.47;;
49784;SDS011;35679;38.732;-121.358;2023-09-19T05:32:23;3.83;;;3.10;;
49784;SDS011;35679;38.732;-121.358;2023-09-19T05:35:13;4.07;;;3.17;;
49784;SDS011;35679;38.732;-121.358;2023-09-19T05:38:02;3.38;;;2.65;;
49784;SDS011;35679;38.732;-121.358;2023-09-19T05:40:54;2.73;;;2.53;;
49784;SDS011;35679;38.732;-121.358;2023-09-19T05:43:43;4.20;;;3.80;;
49784;SDS011;35679;38.732;-121.358;2023-09-19T05:46:32;3.53;;;3.03;;
49784;SDS011;35679;38.732;-121.358;2023-09-19T05:49:22;3.17;;;2.90;;
49784;SDS011;35679;38.732;-121.358;2023-09-19T05:52:13;3.75;;;2.80;;
49784;SDS011;35679;38.732;-121.358;2023-09-19T05:55:03;4.38;;;2.83;;
49784;SDS011;35679;38.732;-121.358;2023-09-19T05:57:55;3.22;;;2.92;;
49784;SDS011;35679;38.732;-121.358;2023-09-19T06:00:45;3.65;;;2.67;;
49784;SDS011;35679;38.732;-121.358;2023-09-19T06:03:36;3.13;;;2.80;;
49784;SDS011;35679;38.732;-121.358;2023-09-19T06:06:26;3.13;;;2.70;;
49784;SDS011;35679;38.732;-121.358;2023-09-19T06:09:15;4.32;;;3.13;;
49784;SDS011;35679;38.732;-121.358;2023-09-19T06:12:07;3.33;;;3.03;;
49784;SDS011;35679;38.732;-121.358;2023-09-19T06:14:57;3.80;;;3.10;;
49784;SDS011;35679;38.732;-121.358;2023-09-19T06:17:51;3.72;;;3.20;;
49784;SDS011;35679;38.732;-121.358;2023-09-19T06:20:46;3.15;;;2.60;;
49784;SDS011;35679;38.732;-121.358;2023-09-19T06:23:36;3.80;;;3.03;;
49784;SDS011;35679;38.732;-121.358;2023-09-19T06:26:26;4.57;;;3.20;;
49784;SDS011;35679;38.732;-121.358;2023-09-19T06:29:15;3.17;;;2.88;;
49784;SDS011;35679;38.732;-121.358;2023-09-19T06:32:08;3.30;;;2.47;;
49784;SDS011;35679;38.732;-121.358;2023-09-19T06:34:58;4.20;;;3.38;;
49784;SDS011;35679;38.732;-121.358;2023-09-19T06:37:48;3.60;;;3.15;;
49784;SDS011;35679;38.732;-121.358;2023-09-19T06:40:37;3.33;;;3.03;;
49784;SDS011;35679;38.732;-121.358;2023-09-19T06:43:29;4.63;;;2.90;;
49784;SDS011;35679;38.732;-121.358;2023-09-19T06:46:21;3.33;;;2.97;;
49784;SDS011;35679;38.732;-121.358;2023-09-19T06:49:11;3.88;;;3.00;;
49784;SDS011;35679;38.732;-121.358;2023-09-19T06:52:03;3.25;;;2.83;;
49784;SDS011;35679;38.732;-121.358;2023-09-19T06:54:53;3.47;;;3.17;;
49784;SDS011;35679;38.732;-121.358;2023-09-19T06:57:43;5.13;;;3.38;;
49784;SDS011;35679;38.732;-121.358;2023-09-19T07:00:32;4.82;;;3.40;;
49784;SDS011;35679;38.732;-121.358;2023-09-19T07:03:24;4.18;;;2.85;;
49784;SDS011;35679;38.732;-121.358;2023-09-19T07:09:06;3.17;;;2.83;;
49784;SDS011;35679;38.732;-121.358;2023-09-19T07:11:56;3.17;;;2.88;;
49784;SDS011;35679;38.732;-121.358;2023-09-19T07:14:46;3.88;;;3.25;;
49784;SDS011;35679;38.732;-121.358;2023-09-19T07:17:35;4.47;;;2.92;;
49784;SDS011;35679;38.732;-121.358;2023-09-19T07:20:25;3.70;;;2.95;;
49784;SDS011;35679;38.732;-121.358;2023-09-19T07:23:16;5.00;;;3.40;;
49784;SDS011;35679;38.732;-121.358;2023-09-19T07:26:06;3.65;;;3.35;;
49784;SDS011;35679;38.732;-121.358;2023-09-19T07:28:56;3.40;;;2.95;;
49784;SDS011;35679;38.732;-121.358;2023-09-19T07:31:46;3.70;;;3.20;;
49784;SDS011;35679;38.732;-121.358;2023-09-19T07:34:36;6.60;;;3.40;;
49784;SDS011;35679;38.732;-121.358;2023-09-19T07:37:28;3.10;;;2.70;;
49784;SDS011;35679;38.732;-121.358;2023-09-19T07:40:21;3.60;;;3.03;;
49784;SDS011;35679;38.732;-121.358;2023-09-19T07:43:12;3.40;;;3.10;;
49784;SDS011;35679;38.732;-121.358;2023-09-19T07:46:05;3.97;;;3.00;;
49784;SDS011;35679;38.732;-121.358;2023-09-19T07:48:58;3.92;;;3.20;;
49784;SDS011;35679;38.732;-121.358;2023-09-19T07:51:48;4.90;;;3.22;;
49784;SDS011;35679;38.732;-121.358;2023-09-19T07:54:37;4.07;;;2.92;;
49784;SDS011;35679;38.732;-121.358;2023-09-19T07:57:27;4.55;;;3.30;;
49784;SDS011;35679;38.732;-121.358;2023-09-19T08:00:17;4.25;;;2.80;;
49784;SDS011;35679;38.732;-121.358;2023-09-19T08:03:07;4.05;;;3.40;;
49784;SDS011;35679;38.732;-121.358;2023-09-19T08:06:04;3.47;;;2.78;;
49784;SDS011;35679;38.732;-121.358;2023-09-19T08:08:53;4.43;;;2.92;;
49784;SDS011;35679;38.732;-121.358;2023-09-19T08:11:43;3.90;;;3.10;;
49784;SDS011;35679;38.732;-121.358;2023-09-19T08:14:34;5.47;;;3.33;;
49784;SDS011;35679;38.732;-121.358;2023-09-19T08:17:23;3.58;;;3.03;;
49784;SDS011;35679;38.732;-121.358;2023-09-19T08:20:13;4.07;;;3.38;;
49784;SDS011;35679;38.732;-121.358;2023-09-19T08:23:05;3.55;;;3.25;;
49784;SDS011;35679;38.732;-121.358;2023-09-19T08:25:56;3.67;;;3.38;;
49784;SDS011;35679;38.732;-121.358;2023-09-19T08:28:46;6.07;;;2.92;;
49784;SDS011;35679;38.732;-121.358;2023-09-19T08:31:36;5.22;;;3.42;;
49784;SDS011;35679;38.732;-121.358;2023-09-19T08:34:26;4.63;;;3.03;;
49784;SDS011;35679;38.732;-121.358;2023-09-19T08:37:16;4.47;;;3.33;;
49784;SDS011;35679;38.732;-121.358;2023-09-19T08:40:08;3.38;;;2.90;;
49784;SDS011;35679;38.732;-121.358;2023-09-19T08:42:57;3.03;;;2.72;;
49784;SDS011;35679;38.732;-121.358;2023-09-19T08:45:47;4.05;;;3.53;;
49784;SDS011;35679;38.732;-121.358;2023-09-19T08:48:39;4.00;;;3.00;;
49784;SDS011;35679;38.732;-121.358;2023-09-19T08:51:41;3.92;;;3.22;;
49784;SDS011;35679;38.732;-121.358;2023-09-19T08:54:35;4.07;;;3.20;;
49784;SDS011;35679;38.732;-121.358;2023-09-19T08:57:28;4.55;;;3.13;;
49784;SDS011;35679;38.732;-121.358;2023-09-19T09:00:22;5.30;;;3.30;;
49784;SDS011;35679;38.732;-121.358;2023-09-19T09:03:14;4.28;;;3.33;;
49784;SDS011;35679;38.732;-121.358;2023-09-19T09:06:08;3.75;;;3.38;;
49784;SDS011;35679;38.732;-121.358;2023-09-19T09:09:02;4.10;;;3.13;;
49784;SDS011;35679;38.732;-121.358;2023-09-19T09:11:52;4.65;;;3.20;;
49784;SDS011;35679;38.732;-121.358;2023-09-19T09:14:45;4.70;;;3.42;;
49784;SDS011;35679;38.732;-121.358;2023-09-19T09:17:38;4.20;;;3.25;;
49784;SDS011;35679;38.732;-121.358;2023-09-19T09:20:28;4.35;;;3.20;;
49784;SDS011;35679;38.732;-121.358;2023-09-19T09:23:17;5.50;;;3.70;;
49784;SDS011;35679;38.732;-121.358;2023-09-19T09:26:07;4.75;;;3.00;;
49784;SDS011;35679;38.732;-121.358;2023-09-19T09:28:57;4.93;;;3.20;;
49784;SDS011;35679;38.732;-121.358;2023-09-19T09:31:47;4.13;;;3.40;;
49784;SDS011;35679;38.732;-121.358;2023-09-19T09:34:36;4.07;;;3.58;;
49784;SDS011;35679;38.732;-121.358;2023-09-19T09:37:26;4.75;;;3.30;;
49784;SDS011;35679;38.732;-121.358;2023-09-19T09:40:20;3.50;;;3.20;;
49784;SDS011;35679;38.732;-121.358;2023-09-19T09:43:25;5.47;;;3.57;;
49784;SDS011;35679;38.732;-121.358;2023-09-19T09:46:23;4.97;;;3.45;;
49784;SDS011;35679;38.732;-121.358;2023-09-19T09:49:12;5.68;;;3.75;;
49784;SDS011;35679;38.732;-121.358;2023-09-19T09:52:15;6.38;;;3.42;;
49784;SDS011;35679;38.732;-121.358;2023-09-19T09:55:05;4.43;;;3.63;;
49784;SDS011;35679;38.732;-121.358;2023-09-19T10:01:07;4.20;;;3.30;;
49784;SDS011;35679;38.732;-121.358;2023-09-19T10:04:03;5.10;;;3.15;;
49784;SDS011;35679;38.732;-121.358;2023-09-19T10:06:53;3.97;;;3.28;;
49784;SDS011;35679;38.732;-121.358;2023-09-19T10:09:45;4.28;;;3.05;;
49784;SDS011;35679;38.732;-121.358;2023-09-19T10:12:39;4.65;;;3.20;;
49784;SDS011;35679;38.732;-121.358;2023-09-19T10:15:32;4.47;;;3.55;;
49784;SDS011;35679;38.732;-121.358;2023-09-19T10:18:24;5.75;;;3.67;;
49784;SDS011;35679;38.732;-121.358;2023-09-19T10:21:15;4.93;;;3.35;;
49784;SDS011;35679;38.732;-121.358;2023-09-19T10:24:10;4.32;;;3.20;;
49784;SDS011;35679;38.732;-121.358;2023-09-19T10:27:01;4.68;;;3.53;;
49784;SDS011;35679;38.732;-121.358;2023-09-19T10:29:52;3.45;;;3.13;;
49784;SDS011;35679;38.732;-121.358;2023-09-19T10:32:43;4.25;;;3.85;;
49784;SDS011;35679;38.732;-121.358;2023-09-19T10:35:37;4.30;;;3.05;;
49784;SDS011;35679;38.732;-121.358;2023-09-19T10:38:31;4.60;;;3.40;;
49784;SDS011;35679;38.732;-121.358;2023-09-19T10:41:24;4.32;;;3.55;;
49784;SDS011;35679;38.732;-121.358;2023-09-19T10:44:14;3.70;;;3.38;;
49784;SDS011;35679;38.732;-121.358;2023-09-19T10:47:09;5.00;;;3.33;;
49784;SDS011;35679;38.732;-121.358;2023-09-19T10:49:59;5.28;;;3.65;;
49784;SDS011;35679;38.732;-121.358;2023-09-19T10:52:51;4.53;;;3.53;;
49784;SDS011;35679;38.732;-121.358;2023-09-19T10:55:58;3.90;;;3.22;;
49784;SDS011;35679;38.732;-121.358;2023-09-19T10:58:51;4.35;;;3.72;;
49784;SDS011;35679;38.732;-121.358;2023-09-19T11:01:44;4.32;;;3.42;;
49784;SDS011;35679;38.732;-121.358;2023-09-19T11:04:39;4.28;;;3.30;;
49784;SDS011;35679;38.732;-121.358;2023-09-19T11:07:29;5.05;;;3.17;;
49784;SDS011;35679;38.732;-121.358;2023-09-19T11:13:38;5.43;;;3.65;;
49784;SDS011;35679;38.732;-121.358;2023-09-19T11:16:29;5.70;;;3.88;;
49784;SDS011;35679;38.732;-121.358;2023-09-19T11:19:19;7.25;;;4.45;;
49784;SDS011;35679;38.732;-121.358;2023-09-19T11:22:08;4.43;;;3.90;;
49784;SDS011;35679;38.732;-121.358;2023-09-19T11:25:19;5.43;;;3.65;;
49784;SDS011;35679;38.732;-121.358;2023-09-19T11:40:22;6.53;;;3.88;;
49784;SDS011;35679;38.732;-121.358;2023-09-19T11:43:28;6.43;;;3.97;;
49784;SDS011;35679;38.732;-121.358;2023-09-19T11:46:19;6.15;;;3.70;;
49784;SDS011;35679;38.732;-121.358;2023-09-19T11:49:12;4.13;;;3.50;;
49784;SDS011;35679;38.732;-121.358;2023-09-19T11:52:02;4.97;;;3.65;;
49784;SDS011;35679;38.732;-121.358;2023-09-19T11:54:56;5.03;;;3.53;;
49784;SDS011;35679;38.732;-121.358;2023-09-19T11:57:48;4.90;;;3.70;;
49784;SDS011;35679;38.732;-121.358;2023-09-19T12:00:39;5.88;;;4.10;;
49784;SDS011;35679;38.732;-121.358;2023-09-19T12:03:33;5.47;;;3.70;;
49784;SDS011;35679;38.732;-121.358;2023-09-19T12:06:30;4.88;;;3.88;;
49784;SDS011;35679;38.732;-121.358;2023-09-19T12:09:22;6.28;;;3.78;;
49784;SDS011;35679;38.732;-121.358;2023-09-19T12:12:21;5.05;;;4.00;;
49784;SDS011;35679;38.732;-121.358;2023-09-19T12:15:11;6.30;;;4.10;;
49784;SDS011;35679;38.732;-121.358;2023-09-19T12:18:00;7.28;;;4.00;;
49784;SDS011;35679;38.732;-121.358;2023-09-19T12:20:52;4.38;;;3.80;;
49784;SDS011;35679;38.732;-121.358;2023-09-19T12:23:43;6.00;;;4.25;;
49784;SDS011;35679;38.732;-121.358;2023-09-19T12:26:42;6.38;;;4.03;;
49784;SDS011;35679;38.732;-121.358;2023-09-19T12:29:46;6.07;;;4.28;;
49784;SDS011;35679;38.732;-121.358;2023-09-19T12:32:43;7.72;;;4.25;;
49784;SDS011;35679;38.732;-121.358;2023-09-19T12:35:35;7.78;;;4.20;;
49784;SDS011;35679;38.732;-121.358;2023-09-19T12:38:27;6.97;;;4.25;;
49784;SDS011;35679;38.732;-121.358;2023-09-19T12:41:23;5.82;;;4.28;;
49784;SDS011;35679;38.732;-121.358;2023-09-19T12:44:14;6.88;;;4.07;;
49784;SDS011;35679;38.732;-121.358;2023-09-19T12:47:14;6.60;;;4.30;;
49784;SDS011;35679;38.732;-121.358;2023-09-19T12:50:13;8.38;;;4.55;;
49784;SDS011;35679;38.732;-121.358;2023-09-19T12:53:24;6.95;;;4.00;;
49784;SDS011;35679;38.732;-121.358;2023-09-19T12:56:17;5.68;;;4.32;;
49784;SDS011;35679;38.732;-121.358;2023-09-19T12:59:07;8.05;;;4.35;;
49784;SDS011;35679;38.732;-121.358;2023-09-19T13:02:03;7.97;;;4.07;;
49784;SDS011;35679;38.732;-121.358;2023-09-19T13:05:02;7.50;;;4.40;;
49784;SDS011;35679;38.732;-121.358;2023-09-19T13:11:03;7.53;;;4.55;;
49784;SDS011;35679;38.732;-121.358;2023-09-19T13:17:08;5.38;;;4.38;;
49784;SDS011;35679;38.732;-121.358;2023-09-19T13:20:24;5.18;;;4.03;;
49784;SDS011;35679;38.732;-121.358;2023-09-19T13:23:26;8.70;;;4.50;;
49784;SDS011;35679;38.732;-121.358;2023-09-19T13:26:16;6.55;;;4.60;;
49784;SDS011;35679;38.732;-121.358;2023-09-19T13:29:05;9.50;;;4.90;;
49784;SDS011;35679;38.732;-121.358;2023-09-19T13:31:55;6.57;;;4.72;;
49784;SDS011;35679;38.732;-121.358;2023-09-19T13:34:44;7.60;;;4.47;;
49784;SDS011;35679;38.732;-121.358;2023-09-19T13:37:34;5.55;;;4.15;;
49784;SDS011;35679;38.732;-121.358;2023-09-19T13:40:29;6.22;;;5.03;;
49784;SDS011;35679;38.732;-121.358;2023-09-19T13:43:23;5.90;;;4.57;;
49784;SDS011;35679;38.732;-121.358;2023-09-19T13:46:13;6.63;;;4.53;;
49784;SDS011;35679;38.732;-121.358;2023-09-19T13:49:04;5.97;;;4.40;;
49784;SDS011;35679;38.732;-121.358;2023-09-19T13:51:54;5.85;;;4.47;;
49784;SDS011;35679;38.732;-121.358;2023-09-19T13:54:43;7.35;;;4.45;;
49784;SDS011;35679;38.732;-121.358;2023-09-19T13:57:33;9.63;;;4.55;;
49784;SDS011;35679;38.732;-121.358;2023-09-19T14:00:22;6.18;;;4.72;;
49784;SDS011;35679;38.732;-121.358;2023-09-19T14:03:12;6.00;;;4.50;;
49784;SDS011;35679;38.732;-121.358;2023-09-19T14:06:05;6.30;;;4.30;;
49784;SDS011;35679;38.732;-121.358;2023-09-19T14:08:54;7.72;;;5.53;;
49784;SDS011;35679;38.732;-121.358;2023-09-19T14:11:43;7.63;;;5.72;;
49784;SDS011;35679;38.732;-121.358;2023-09-19T14:14:35;9.20;;;5.70;;
49784;SDS011;35679;38.732;-121.358;2023-09-19T14:17:25;9.00;;;6.45;;
49784;SDS011;35679;38.732;-121.358;2023-09-19T14:20:15;8.23;;;7.30;;
49784;SDS011;35679;38.732;-121.358;2023-09-19T14:23:04;8.85;;;7.60;;
49784;SDS011;35679;38.732;-121.358;2023-09-19T14:25:55;6.80;;;6.18;;
49784;SDS011;35679;38.732;-121.358;2023-09-19T14:28:45;8.60;;;6.32;;
49784;SDS011;35679;38.732;-121.358;2023-09-19T14:31:36;8.57;;;5.60;;
49784;SDS011;35679;38.732;-121.358;2023-09-19T14:34:27;10.23;;;6.18;;
49784;SDS011;35679;38.732;-121.358;2023-09-19T14:37:16;8.30;;;5.90;;
49784;SDS011;35679;38.732;-121.358;2023-09-19T14:40:06;6.05;;;5.47;;
49784;SDS011;35679;38.732;-121.358;2023-09-19T14:42:57;6.95;;;6.05;;
49784;SDS011;35679;38.732;-121.358;2023-09-19T14:45:46;9.70;;;5.75;;
49784;SDS011;35679;38.732;-121.358;2023-09-19T14:48:39;6.35;;;5.20;;
49784;SDS011;35679;38.732;-121.358;2023-09-19T14:51:29;7.75;;;5.53;;
49784;SDS011;35679;38.732;-121.358;2023-09-19T14:54:19;5.75;;;5.15;;
49784;SDS011;35679;38.732;-121.358;2023-09-19T14:57:09;8.85;;;6.00;;
49784;SDS011;35679;38.732;-121.358;2023-09-19T14:59:58;6.78;;;5.50;;
49784;SDS011;35679;38.732;-121.358;2023-09-19T15:02:48;7.38;;;6.60;;
49784;SDS011;35679;38.732;-121.358;2023-09-19T15:05:39;7.63;;;6.63;;
49784;SDS011;35679;38.732;-121.358;2023-09-19T15:08:28;9.27;;;6.75;;
49784;SDS011;35679;38.732;-121.358;2023-09-19T15:11:17;5.75;;;4.10;;
49784;SDS011;35679;38.732;-121.358;2023-09-19T15:14:08;9.27;;;4.65;;
49784;SDS011;35679;38.732;-121.358;2023-09-19T15:16:58;6.65;;;4.60;;
49784;SDS011;35679;38.732;-121.358;2023-09-19T15:19:49;8.23;;;4.32;;
49784;SDS011;35679;38.732;-121.358;2023-09-19T15:22:38;7.70;;;4.22;;
49784;SDS011;35679;38.732;-121.358;2023-09-19T15:25:28;5.95;;;4.32;;
49784;SDS011;35679;38.732;-121.358;2023-09-19T15:28:18;7.57;;;4.85;;
49784;SDS011;35679;38.732;-121.358;2023-09-19T15:31:11;7.20;;;4.93;;
49784;SDS011;35679;38.732;-121.358;2023-09-19T15:34:01;8.00;;;4.80;;
49784;SDS011;35679;38.732;-121.358;2023-09-19T15:36:51;6.28;;;4.65;;
49784;SDS011;35679;38.732;-121.358;2023-09-19T15:39:40;7.05;;;4.80;;
49784;SDS011;35679;38.732;-121.358;2023-09-19T15:42:30;6.85;;;5.20;;
49784;SDS011;35679;38.732;-121.358;2023-09-19T15:45:19;7.57;;;5.00;;
49784;SDS011;35679;38.732;-121.358;2023-09-19T15:48:09;7.80;;;4.40;;
49784;SDS011;35679;38.732;-121.358;2023-09-19T15:51:02;6.72;;;4.40;;
49784;SDS011;35679;38.732;-121.358;2023-09-19T15:53:53;6.75;;;4.32;;
49784;SDS011;35679;38.732;-121.358;2023-09-19T15:56:44;5.93;;;4.47;;
49784;SDS011;35679;38.732;-121.358;2023-09-19T15:59:35;6.95;;;4.78;;
49784;SDS011;35679;38.732;-121.358;2023-09-19T16:02:24;7.10;;;4.97;;
49784;SDS011;35679;38.732;-121.358;2023-09-19T16:05:14;6.88;;;4.75;;
49784;SDS011;35679;38.732;-121.358;2023-09-19T16:08:04;7.45;;;4.93;;
49784;SDS011;35679;38.732;-121.358;2023-09-19T16:10:55;7.75;;;4.80;;
49784;SDS011;35679;38.732;-121.358;2023-09-19T16:13:46;6.53;;;4.78;;
49784;SDS011;35679;38.732;-121.358;2023-09-19T16:16:36;6.78;;;4.63;;
49784;SDS011;35679;38.732;-121.358;2023-09-19T16:19:26;7.45;;;4.88;;
49784;SDS011;35679;38.732;-121.358;2023-09-19T16:22:16;6.47;;;4.63;;
49784;SDS011;35679;38.732;-121.358;2023-09-19T16:25:05;8.27;;;4.95;;
49784;SDS011;35679;38.732;-121.358;2023-09-19T16:27:55;6.72;;;5.13;;
49784;SDS011;35679;38.732;-121.358;2023-09-19T16:30:44;8.23;;;4.93;;
49784;SDS011;35679;38.732;-121.358;2023-09-19T16:33:35;7.28;;;4.80;;
49784;SDS011;35679;38.732;-121.358;2023-09-19T16:36:25;8.93;;;5.68;;
49784;SDS011;35679;38.732;-121.358;2023-09-19T16:39:15;8.38;;;5.20;;
49784;SDS011;35679;38.732;-121.358;2023-09-19T16:42:05;7.15;;;4.82;;
49784;SDS011;35679;38.732;-121.358;2023-09-19T16:45:08;8.70;;;5.13;;
49784;SDS011;35679;38.732;-121.358;2023-09-19T16:48:00;6.97;;;4.95;;
49784;SDS011;35679;38.732;-121.358;2023-09-19T16:50:50;8.13;;;5.57;;
49784;SDS011;35679;38.732;-121.358;2023-09-19T16:53:39;8.10;;;4.88;;
49784;SDS011;35679;38.732;-121.358;2023-09-19T16:56:37;8.00;;;5.10;;
49784;SDS011;35679;38.732;-121.358;2023-09-19T16:59:27;7.80;;;5.15;;
49784;SDS011;35679;38.732;-121.358;2023-09-19T17:02:17;8.25;;;5.20;;
49784;SDS011;35679;38.732;-121.358;2023-09-19T17:05:07;9.18;;;5.07;;
49784;SDS011;35679;38.732;-121.358;2023-09-19T17:07:56;6.82;;;4.95;;